Flight Track Log - Related Links

Times and Time Zones

All times are in EST time to prevent confusion due to time zone crossing. See the N1944E flight status page for this flight to view local times or setup timezone preferences in your user account.

Time Position Orientation Groundspeed Altitude Reporting Facility
EST Latitude Longitude Course Direction KTS MPH feet Rate Location/Type
Fri 08:57:57 PM 45.7872 -108.5956 226° Southwest 139 160 5,300  Level Salt Lake Center
Fri 08:58:58 PM 45.7475 -108.6169 201° Southwest 156 180 6,100 829 Climbing Salt Lake Center
Fri 09:00:00 PM 45.7042 -108.6411 201° Southwest 156 180 7,000 878 Climbing Salt Lake Center
Fri 09:01:01 PM 45.6664 -108.6689 207° Southwest 156 180 7,900 878 Climbing Salt Lake Center
Fri 09:02:00 PM 45.5437 -108.6357 194° South  Level FlightAware Approximate
Fri 09:02:03 PM 45.6175 -108.6825 191° South 166 191 8,800  Level Salt Lake Center
Fri 09:03:05 PM 45.5686 -108.6939 189° South 178 205 9,000 98 Climbing Salt Lake Center
Fri 09:04:06 PM 45.5122 -108.7122 193° South 190 219 9,000 49 Level Salt Lake Center
Fri 09:05:08 PM 45.4606 -108.7267 191° South 191 220 9,100  Climbing Salt Lake Center
Fri 09:06:09 PM 45.4078 -108.7436 193° South 194 223 9,000 -49 Descending Salt Lake Center
Fri 09:07:11 PM 45.3519 -108.7600 192° South 194 223 9,000  Level Salt Lake Center
Fri 09:08:13 PM 45.2969 -108.7739 190° South 200 230 9,000  Level Salt Lake Center
Fri 09:09:14 PM 45.2369 -108.7897 191° South 204 235 9,000 49 Level Salt Lake Center
Fri 09:10:16 PM 45.1814 -108.8050 191° South 205 236 9,100 49 Climbing Salt Lake Center
Fri 09:11:17 PM 45.1200 -108.8222 191° South 209 241 9,100  Level Salt Lake Center
Fri 09:13:00 PM 45.0277 -108.8432 189° South  Level FlightAware Approximate
Fri 09:20:00 PM 44.6530 -108.9401 191° South  Level FlightAware Approximate
Fri 09:21:00 PM 44.6009 -108.9605 205° Southwest  Level FlightAware Approximate
Fri 09:22:00 PM 44.5517 -108.9933 205° Southwest  Level FlightAware Approximate
Fri 09:23:00 PM 44.5167 -109.0167 205° Southwest  Level FlightAware Approximate
Fri 09:24:00 PM 44.5202 -109.0238 205° Southwest  Level Estimated
Fri 09:25:00 PM 44.5167 -109.0167 205° Southwest  Level FlightAware Approximate
Fri 09:26:00 PM 44.5202 -109.0238 205° Southwest  Level Estimated
Fri 09:27:00 PM 44.5167 -109.0167 205° Southwest  Level FlightAware Approximate
Fri 09:28:00 PM 44.5202 -109.0238 205° Southwest  Level Estimated
Fri 09:29:00 PM 44.5167 -109.0167 205° Southwest  Level FlightAware Approximate
Fri 09:30:00 PM 44.5202 -109.0238 205° Southwest  Level Estimated
Fri 09:31:00 PM 44.5167 -109.0167 205° Southwest  Level FlightAware Approximate
Fri 09:32:00 PM 44.5202 -109.0238 205° Southwest  Level Estimated
Fri 09:33:00 PM 44.5167 -109.0167 205° Southwest  Level FlightAware Approximate
Fri 09:34:00 PM 44.5202 -109.0238 205° Southwest  Level Estimated
Fri 09:35:00 PM 44.5167 -109.0167 205° Southwest  Level FlightAware Approximate
Fri 09:36:00 PM 44.5202 -109.0238 205° Southwest  Level Estimated
Fri 09:37:00 PM 44.5167 -109.0167 205° Southwest  Level FlightAware Approximate

Login

Don't have an account? Register now (free) for customized features, flight alerts, and more!